Estación Meteorológica Peña el Pijo (Robertgarden) [ 06/14/24 10:02:06 CEST ]

Fecha Hora Presion(HPa) Temp (°C) Humedad % Rocio (°C) Viento ( m/s) Direccion Lluvia 1Hora(mm) Lluvia 24H(mm) LLuvia Total(mm)
2012-Sep-08 01:01:19 1017.400 14.6 71 9.4         178.19
2012-Sep-08 02:01:13 1017.200 13.6 75 9.2         178.19
2012-Sep-08 03:01:48 1016.500 12.9 78 9.1         178.19
2012-Sep-08 04:05:14 1016.200 12.3 79 8.8         178.19
2012-Sep-08 05:01:14 1016.100 11.4 81 8.3         178.19
2012-Sep-08 06:01:14 1015.600 11.1 82 8.1         178.19
2012-Sep-08 07:01:12 1015.500 10.8 83 8.0         178.19
2012-Sep-08 08:01:12 1015.900 10.6 82 7.6         178.19
2012-Sep-08 09:01:18 1016.100 13.0 80 9.6         178.19
2012-Sep-08 10:01:13 1015.700 20.9 58 12.3         178.19
2012-Sep-08 11:01:12 1015.900 25.9 41 11.7         178.19
2012-Sep-08 12:01:18 1015.600 27.9 35 10.9         178.19
2012-Sep-08 13:01:13 1015.000 28.1 30 8.9         178.19
2012-Sep-08 14:01:19 1015.200 19.8 62 12.3 0.5 NNE     178.19
2012-Sep-08 15:01:15 1014.200 22.4 54 12.6         178.19
2012-Sep-08 16:01:15 1013.800 21.8 58 13.2         178.19
2012-Sep-08 17:01:12 1013.900 20.3 63 13.0         178.19
2012-Sep-08 18:01:14 1013.400 20.8 67 14.4         178.19
2012-Sep-08 19:01:16 1013.400 21.6 67 15.2         178.19
2012-Sep-08 20:01:12 1013.800 21.5 66 14.9         178.19
2012-Sep-08 21:01:15 1014.400 19.6 62 12.1         178.19
2012-Sep-08 22:01:13 1014.600 18.9 63 11.7         178.19
2012-Sep-08 23:01:13 1014.700 17.6 67 11.4         178.19

Temperatura Máxima:28°    Temperatura Mínima:10°
Presión Máxima:1017.400 Hpa    Presión Mínima:1013.400 Hpa


Volver